sensor_id;sensor_type;location;lat;lon;timestamp;temperature;humidity
70154;DHT22;57519;51.494;-2.626;2023-06-24T00:01:23;19.53;76.93
70154;DHT22;57519;51.494;-2.626;2023-06-24T00:03:48;19.54;77.11
70154;DHT22;57519;51.494;-2.626;2023-06-24T00:06:13;19.62;76.71
70154;DHT22;57519;51.494;-2.626;2023-06-24T00:08:44;19.62;76.73
70154;DHT22;57519;51.494;-2.626;2023-06-24T00:11:10;19.62;76.60
70154;DHT22;57519;51.494;-2.626;2023-06-24T00:13:36;19.64;76.33
70154;DHT22;57519;51.494;-2.626;2023-06-24T00:16:01;19.66;76.18
70154;DHT22;57519;51.494;-2.626;2023-06-24T00:18:27;19.65;76.09
70154;DHT22;57519;51.494;-2.626;2023-06-24T00:20:55;19.68;76.07
70154;DHT22;57519;51.494;-2.626;2023-06-24T00:23:22;19.71;75.99
70154;DHT22;57519;51.494;-2.626;2023-06-24T00:25:52;19.65;76.03
70154;DHT22;57519;51.494;-2.626;2023-06-24T00:28:17;19.66;76.08
70154;DHT22;57519;51.494;-2.626;2023-06-24T00:30:43;19.74;75.71
70154;DHT22;57519;51.494;-2.626;2023-06-24T00:33:08;19.72;75.63
70154;DHT22;57519;51.494;-2.626;2023-06-24T00:35:36;19.65;75.89
70154;DHT22;57519;51.494;-2.626;2023-06-24T00:38:03;19.71;75.74
70154;DHT22;57519;51.494;-2.626;2023-06-24T00:40:28;19.72;75.67
70154;DHT22;57519;51.494;-2.626;2023-06-24T00:42:54;19.68;75.81
70154;DHT22;57519;51.494;-2.626;2023-06-24T00:45:21;19.68;75.77
70154;DHT22;57519;51.494;-2.626;2023-06-24T00:47:47;19.68;75.97
70154;DHT22;57519;51.494;-2.626;2023-06-24T00:50:12;19.64;75.95
70154;DHT22;57519;51.494;-2.626;2023-06-24T00:52:38;19.61;75.90
70154;DHT22;57519;51.494;-2.626;2023-06-24T00:55:08;19.62;75.90
70154;DHT22;57519;51.494;-2.626;2023-06-24T00:57:34;19.65;76.11
70154;DHT22;57519;51.494;-2.626;2023-06-24T01:00:04;19.64;76.26
70154;DHT22;57519;51.494;-2.626;2023-06-24T01:02:35;19.61;76.18
70154;DHT22;57519;51.494;-2.626;2023-06-24T01:05:03;19.61;76.32
70154;DHT22;57519;51.494;-2.626;2023-06-24T01:07:31;19.59;76.32
70154;DHT22;57519;51.494;-2.626;2023-06-24T01:09:57;19.62;76.27
70154;DHT22;57519;51.494;-2.626;2023-06-24T01:12:23;19.58;76.43
70154;DHT22;57519;51.494;-2.626;2023-06-24T01:14:48;19.59;76.27
70154;DHT22;57519;51.494;-2.626;2023-06-24T01:17:23;19.58;76.42
70154;DHT22;57519;51.494;-2.626;2023-06-24T01:20:11;19.59;76.56
70154;DHT22;57519;51.494;-2.626;2023-06-24T01:22:59;19.58;76.66
70154;DHT22;57519;51.494;-2.626;2023-06-24T01:33:52;19.53;77.10
70154;DHT22;57519;51.494;-2.626;2023-06-24T01:36:21;19.51;77.17
70154;DHT22;57519;51.494;-2.626;2023-06-24T01:38:52;19.55;77.15
70154;DHT22;57519;51.494;-2.626;2023-06-24T01:41:25;19.53;77.35
70154;DHT22;57519;51.494;-2.626;2023-06-24T01:43:56;19.48;77.56
70154;DHT22;57519;51.494;-2.626;2023-06-24T01:46:24;19.48;77.73
70154;DHT22;57519;51.494;-2.626;2023-06-24T01:48:53;19.51;77.64
70154;DHT22;57519;51.494;-2.626;2023-06-24T01:51:20;19.51;77.66
70154;DHT22;57519;51.494;-2.626;2023-06-24T01:53:52;19.53;77.37
70154;DHT22;57519;51.494;-2.626;2023-06-24T01:56:20;19.50;77.67
70154;DHT22;57519;51.494;-2.626;2023-06-24T01:58:47;19.43;77.71
70154;DHT22;57519;51.494;-2.626;2023-06-24T02:01:16;19.44;77.77
70154;DHT22;57519;51.494;-2.626;2023-06-24T02:03:42;19.41;77.93
70154;DHT22;57519;51.494;-2.626;2023-06-24T02:06:09;19.35;78.17
70154;DHT22;57519;51.494;-2.626;2023-06-24T02:08:37;19.34;78.38
70154;DHT22;57519;51.494;-2.626;2023-06-24T02:11:06;19.31;78.45
70154;DHT22;57519;51.494;-2.626;2023-06-24T02:13:34;19.26;78.65
70154;DHT22;57519;51.494;-2.626;2023-06-24T02:16:02;19.30;78.59
70154;DHT22;57519;51.494;-2.626;2023-06-24T02:18:31;19.31;78.72
70154;DHT22;57519;51.494;-2.626;2023-06-24T02:20:56;19.31;78.70
70154;DHT22;57519;51.494;-2.626;2023-06-24T02:23:23;19.35;78.79
70154;DHT22;57519;51.494;-2.626;2023-06-24T02:25:49;19.32;78.81
70154;DHT22;57519;51.494;-2.626;2023-06-24T02:28:17;19.27;78.96
70154;DHT22;57519;51.494;-2.626;2023-06-24T02:30:43;19.30;79.18
70154;DHT22;57519;51.494;-2.626;2023-06-24T02:33:10;19.30;79.06
70154;DHT22;57519;51.494;-2.626;2023-06-24T02:35:37;19.26;79.30
70154;DHT22;57519;51.494;-2.626;2023-06-24T02:38:02;19.21;79.70
70154;DHT22;57519;51.494;-2.626;2023-06-24T02:40:28;19.20;79.70
70154;DHT22;57519;51.494;-2.626;2023-06-24T02:42:54;19.24;79.52
70154;DHT22;57519;51.494;-2.626;2023-06-24T02:45:20;19.17;79.66
70154;DHT22;57519;51.494;-2.626;2023-06-24T02:47:46;19.20;79.70
70154;DHT22;57519;51.494;-2.626;2023-06-24T02:50:12;19.21;79.80
70154;DHT22;57519;51.494;-2.626;2023-06-24T02:52:39;19.17;79.87
70154;DHT22;57519;51.494;-2.626;2023-06-24T02:55:05;19.14;79.99
70154;DHT22;57519;51.494;-2.626;2023-06-24T02:57:32;19.14;79.95
70154;DHT22;57519;51.494;-2.626;2023-06-24T02:59:58;19.16;79.93
70154;DHT22;57519;51.494;-2.626;2023-06-24T03:02:24;19.14;80.20
70154;DHT22;57519;51.494;-2.626;2023-06-24T03:04:50;19.14;80.28
70154;DHT22;57519;51.494;-2.626;2023-06-24T03:07:16;19.13;80.25
70154;DHT22;57519;51.494;-2.626;2023-06-24T03:09:46;19.16;80.31
70154;DHT22;57519;51.494;-2.626;2023-06-24T03:12:11;19.13;80.50
70154;DHT22;57519;51.494;-2.626;2023-06-24T03:14:37;19.11;80.45
70154;DHT22;57519;51.494;-2.626;2023-06-24T03:17:03;19.14;80.46
70154;DHT22;57519;51.494;-2.626;2023-06-24T03:19:28;19.17;80.33
70154;DHT22;57519;51.494;-2.626;2023-06-24T03:21:54;19.16;80.51
70154;DHT22;57519;51.494;-2.626;2023-06-24T03:24:19;19.18;80.51
70154;DHT22;57519;51.494;-2.626;2023-06-24T03:26:45;19.17;80.79
70154;DHT22;57519;51.494;-2.626;2023-06-24T03:29:11;19.14;80.77
70154;DHT22;57519;51.494;-2.626;2023-06-24T03:31:37;19.13;81.00
70154;DHT22;57519;51.494;-2.626;2023-06-24T03:34:02;19.14;81.11
70154;DHT22;57519;51.494;-2.626;2023-06-24T03:36:28;19.11;80.82
70154;DHT22;57519;51.494;-2.626;2023-06-24T03:38:53;19.02;80.94
70154;DHT22;57519;51.494;-2.626;2023-06-24T03:41:19;19.03;80.98
70154;DHT22;57519;51.494;-2.626;2023-06-24T03:43:44;19.07;81.11
70154;DHT22;57519;51.494;-2.626;2023-06-24T03:46:11;19.07;81.14
70154;DHT22;57519;51.494;-2.626;2023-06-24T03:48:36;19.07;81.18
70154;DHT22;57519;51.494;-2.626;2023-06-24T03:51:02;19.11;80.98
70154;DHT22;57519;51.494;-2.626;2023-06-24T03:53:27;19.14;80.94
70154;DHT22;57519;51.494;-2.626;2023-06-24T03:55:53;19.16;81.10
70154;DHT22;57519;51.494;-2.626;2023-06-24T03:58:18;19.20;82.06
70154;DHT22;57519;51.494;-2.626;2023-06-24T04:00:46;19.13;82.06
70154;DHT22;57519;51.494;-2.626;2023-06-24T04:03:14;19.14;82.36
70154;DHT22;57519;51.494;-2.626;2023-06-24T04:05:40;19.11;82.41
70154;DHT22;57519;51.494;-2.626;2023-06-24T04:08:05;19.09;82.45
70154;DHT22;57519;51.494;-2.626;2023-06-24T04:10:32;19.07;82.13
70154;DHT22;57519;51.494;-2.626;2023-06-24T04:12:58;19.11;82.21
70154;DHT22;57519;51.494;-2.626;2023-06-24T04:15:23;19.10;82.18
70154;DHT22;57519;51.494;-2.626;2023-06-24T04:17:49;19.14;82.26
70154;DHT22;57519;51.494;-2.626;2023-06-24T04:20:14;19.20;81.97
70154;DHT22;57519;51.494;-2.626;2023-06-24T04:22:41;19.24;81.81
70154;DHT22;57519;51.494;-2.626;2023-06-24T04:25:07;19.27;81.77
70154;DHT22;57519;51.494;-2.626;2023-06-24T04:27:33;19.28;81.73
70154;DHT22;57519;51.494;-2.626;2023-06-24T04:29:59;19.32;81.56
70154;DHT22;57519;51.494;-2.626;2023-06-24T04:32:25;19.34;81.47
70154;DHT22;57519;51.494;-2.626;2023-06-24T04:34:51;19.44;81.55
70154;DHT22;57519;51.494;-2.626;2023-06-24T04:37:16;19.45;81.55
70154;DHT22;57519;51.494;-2.626;2023-06-24T04:39:43;19.51;81.49
70154;DHT22;57519;51.494;-2.626;2023-06-24T04:42:08;19.54;81.37
70154;DHT22;57519;51.494;-2.626;2023-06-24T04:44:34;19.54;81.21
70154;DHT22;57519;51.494;-2.626;2023-06-24T04:47:00;19.55;81.54
70154;DHT22;57519;51.494;-2.626;2023-06-24T04:49:25;19.55;81.65
70154;DHT22;57519;51.494;-2.626;2023-06-24T04:51:51;19.55;81.52
70154;DHT22;57519;51.494;-2.626;2023-06-24T04:54:16;19.62;81.40
70154;DHT22;57519;51.494;-2.626;2023-06-24T04:56:42;19.64;81.43
70154;DHT22;57519;51.494;-2.626;2023-06-24T04:59:08;19.72;81.27
70154;DHT22;57519;51.494;-2.626;2023-06-24T05:01:33;19.69;81.43
70154;DHT22;57519;51.494;-2.626;2023-06-24T05:03:59;19.75;81.08
70154;DHT22;57519;51.494;-2.626;2023-06-24T05:06:24;19.97;81.06
70154;DHT22;57519;51.494;-2.626;2023-06-24T05:08:49;20.00;80.63
70154;DHT22;57519;51.494;-2.626;2023-06-24T05:11:15;20.08;80.55
70154;DHT22;57519;51.494;-2.626;2023-06-24T05:13:40;20.12;80.13
70154;DHT22;57519;51.494;-2.626;2023-06-24T05:16:06;20.10;80.20
70154;DHT22;57519;51.494;-2.626;2023-06-24T05:18:31;20.33;79.58
70154;DHT22;57519;51.494;-2.626;2023-06-24T05:20:57;20.34;79.23
70154;DHT22;57519;51.494;-2.626;2023-06-24T05:23:22;20.32;79.38
70154;DHT22;57519;51.494;-2.626;2023-06-24T05:25:48;20.37;79.25
70154;DHT22;57519;51.494;-2.626;2023-06-24T05:28:13;20.27;79.48
70154;DHT22;57519;51.494;-2.626;2023-06-24T05:30:39;20.23;79.48
70154;DHT22;57519;51.494;-2.626;2023-06-24T05:33:04;20.10;79.72
70154;DHT22;57519;51.494;-2.626;2023-06-24T05:35:29;20.10;80.07
70154;DHT22;57519;51.494;-2.626;2023-06-24T05:37:55;20.13;80.41
70154;DHT22;57519;51.494;-2.626;2023-06-24T05:40:20;20.26;79.85
70154;DHT22;57519;51.494;-2.626;2023-06-24T05:42:46;20.37;79.41
70154;DHT22;57519;51.494;-2.626;2023-06-24T05:45:11;20.50;79.33
70154;DHT22;57519;51.494;-2.626;2023-06-24T05:47:37;20.57;79.36
70154;DHT22;57519;51.494;-2.626;2023-06-24T05:50:04;20.64;78.84
70154;DHT22;57519;51.494;-2.626;2023-06-24T05:52:29;20.70;78.77
70154;DHT22;57519;51.494;-2.626;2023-06-24T05:54:55;20.70;78.75
70154;DHT22;57519;51.494;-2.626;2023-06-24T05:57:20;20.63;78.61
70154;DHT22;57519;51.494;-2.626;2023-06-24T05:59:46;20.77;78.41
70154;DHT22;57519;51.494;-2.626;2023-06-24T06:02:11;20.89;77.97
70154;DHT22;57519;51.494;-2.626;2023-06-24T06:04:38;21.02;77.69
70154;DHT22;57519;51.494;-2.626;2023-06-24T06:07:04;21.02;77.35
70154;DHT22;57519;51.494;-2.626;2023-06-24T06:09:29;21.05;77.20
70154;DHT22;57519;51.494;-2.626;2023-06-24T06:11:55;21.13;77.60
70154;DHT22;57519;51.494;-2.626;2023-06-24T06:14:20;21.16;77.25
70154;DHT22;57519;51.494;-2.626;2023-06-24T06:16:46;21.18;77.13
70154;DHT22;57519;51.494;-2.626;2023-06-24T06:19:11;21.27;77.10
70154;DHT22;57519;51.494;-2.626;2023-06-24T06:21:36;21.35;76.90
70154;DHT22;57519;51.494;-2.626;2023-06-24T06:24:03;21.45;76.51
70154;DHT22;57519;51.494;-2.626;2023-06-24T06:26:28;21.50;76.14
70154;DHT22;57519;51.494;-2.626;2023-06-24T06:28:54;21.56;76.19
70154;DHT22;57519;51.494;-2.626;2023-06-24T06:31:19;21.74;76.13
70154;DHT22;57519;51.494;-2.626;2023-06-24T06:33:46;21.66;75.91
70154;DHT22;57519;51.494;-2.626;2023-06-24T06:36:12;21.68;75.85
70154;DHT22;57519;51.494;-2.626;2023-06-24T06:38:39;21.70;76.38
70154;DHT22;57519;51.494;-2.626;2023-06-24T06:41:04;21.81;76.08
70154;DHT22;57519;51.494;-2.626;2023-06-24T06:43:30;21.81;75.86
70154;DHT22;57519;51.494;-2.626;2023-06-24T06:45:55;21.83;75.89
70154;DHT22;57519;51.494;-2.626;2023-06-24T06:51:43;21.97;75.29
70154;DHT22;57519;51.494;-2.626;2023-06-24T06:54:08;22.04;74.84
70154;DHT22;57519;51.494;-2.626;2023-06-24T06:56:33;22.22;74.43
70154;DHT22;57519;51.494;-2.626;2023-06-24T06:58:59;22.02;74.16
70154;DHT22;57519;51.494;-2.626;2023-06-24T07:01:24;22.05;74.43
70154;DHT22;57519;51.494;-2.626;2023-06-24T07:03:51;22.01;74.60
70154;DHT22;57519;51.494;-2.626;2023-06-24T07:06:19;22.12;74.54
70154;DHT22;57519;51.494;-2.626;2023-06-24T07:08:45;22.19;74.04
70154;DHT22;57519;51.494;-2.626;2023-06-24T07:11:10;22.21;73.74
70154;DHT22;57519;51.494;-2.626;2023-06-24T07:13:36;22.33;73.70
70154;DHT22;57519;51.494;-2.626;2023-06-24T07:16:01;22.48;73.76
70154;DHT22;57519;51.494;-2.626;2023-06-24T07:18:27;22.61;73.13
70154;DHT22;57519;51.494;-2.626;2023-06-24T07:20:55;22.79;73.43
70154;DHT22;57519;51.494;-2.626;2023-06-24T07:23:21;23.06;72.70
70154;DHT22;57519;51.494;-2.626;2023-06-24T07:25:46;23.12;71.58
70154;DHT22;57519;51.494;-2.626;2023-06-24T07:28:11;23.29;71.16
70154;DHT22;57519;51.494;-2.626;2023-06-24T07:30:37;23.17;71.16
70154;DHT22;57519;51.494;-2.626;2023-06-24T07:33:02;23.34;70.81
70154;DHT22;57519;51.494;-2.626;2023-06-24T07:35:31;23.32;70.72
70154;DHT22;57519;51.494;-2.626;2023-06-24T07:37:58;23.28;70.91
70154;DHT22;57519;51.494;-2.626;2023-06-24T07:40:23;23.27;70.72
70154;DHT22;57519;51.494;-2.626;2023-06-24T07:42:48;23.38;71.29
70154;DHT22;57519;51.494;-2.626;2023-06-24T07:45:14;23.34;70.79
70154;DHT22;57519;51.494;-2.626;2023-06-24T07:47:39;23.34;70.99
70154;DHT22;57519;51.494;-2.626;2023-06-24T07:50:05;23.19;71.27
70154;DHT22;57519;51.494;-2.626;2023-06-24T07:52:31;23.15;71.11
70154;DHT22;57519;51.494;-2.626;2023-06-24T07:57:22;22.53;72.65
70154;DHT22;57519;51.494;-2.626;2023-06-24T07:59:47;22.61;73.15
70154;DHT22;57519;51.494;-2.626;2023-06-24T08:02:13;22.86;72.10
70154;DHT22;57519;51.494;-2.626;2023-06-24T08:04:38;22.98;72.05
70154;DHT22;57519;51.494;-2.626;2023-06-24T08:07:04;23.27;71.86
70154;DHT22;57519;51.494;-2.626;2023-06-24T08:09:30;23.24;70.82
70154;DHT22;57519;51.494;-2.626;2023-06-24T08:11:55;23.04;71.24
70154;DHT22;57519;51.494;-2.626;2023-06-24T08:14:20;23.35;71.04
70154;DHT22;57519;51.494;-2.626;2023-06-24T08:16:46;23.61;70.39
70154;DHT22;57519;51.494;-2.626;2023-06-24T08:19:11;23.55;70.28
70154;DHT22;57519;51.494;-2.626;2023-06-24T08:21:37;23.28;70.86
70154;DHT22;57519;51.494;-2.626;2023-06-24T08:24:04;23.55;70.20
70154;DHT22;57519;51.494;-2.626;2023-06-24T08:26:29;23.86;69.32
70154;DHT22;57519;51.494;-2.626;2023-06-24T08:28:56;24.14;69.02
70154;DHT22;57519;51.494;-2.626;2023-06-24T08:31:21;23.93;69.06
70154;DHT22;57519;51.494;-2.626;2023-06-24T08:33:52;24.07;68.63
70154;DHT22;57519;51.494;-2.626;2023-06-24T08:36:18;23.97;69.50
70154;DHT22;57519;51.494;-2.626;2023-06-24T08:38:43;24.14;69.19
70154;DHT22;57519;51.494;-2.626;2023-06-24T08:41:08;24.07;69.20
70154;DHT22;57519;51.494;-2.626;2023-06-24T08:43:34;24.07;68.65
70154;DHT22;57519;51.494;-2.626;2023-06-24T08:45:59;23.96;68.68
70154;DHT22;57519;51.494;-2.626;2023-06-24T08:48:25;23.86;68.85
70154;DHT22;57519;51.494;-2.626;2023-06-24T08:50:53;23.82;69.19
70154;DHT22;57519;51.494;-2.626;2023-06-24T08:53:21;24.07;69.02
70154;DHT22;57519;51.494;-2.626;2023-06-24T08:55:49;24.13;68.24
70154;DHT22;57519;51.494;-2.626;2023-06-24T08:58:18;24.41;68.26
70154;DHT22;57519;51.494;-2.626;2023-06-24T09:00:43;24.38;67.97
70154;DHT22;57519;51.494;-2.626;2023-06-24T09:03:09;24.21;68.21
70154;DHT22;57519;51.494;-2.626;2023-06-24T09:05:34;23.93;68.81
70154;DHT22;57519;51.494;-2.626;2023-06-24T09:08:00;23.90;68.93
70154;DHT22;57519;51.494;-2.626;2023-06-24T09:10:30;23.77;69.95
70154;DHT22;57519;51.494;-2.626;2023-06-24T09:12:57;23.89;69.69
70154;DHT22;57519;51.494;-2.626;2023-06-24T09:15:22;23.79;69.46
70154;DHT22;57519;51.494;-2.626;2023-06-24T09:17:47;24.00;69.03
70154;DHT22;57519;51.494;-2.626;2023-06-24T09:20:13;24.30;68.72
70154;DHT22;57519;51.494;-2.626;2023-06-24T09:22:41;24.32;68.82
70154;DHT22;57519;51.494;-2.626;2023-06-24T09:25:07;24.30;68.36
70154;DHT22;57519;51.494;-2.626;2023-06-24T09:27:33;24.18;69.36
70154;DHT22;57519;51.494;-2.626;2023-06-24T09:29:58;24.20;69.07
70154;DHT22;57519;51.494;-2.626;2023-06-24T09:32:33;24.47;68.57
70154;DHT22;57519;51.494;-2.626;2023-06-24T09:35:02;24.61;68.15
70154;DHT22;57519;51.494;-2.626;2023-06-24T09:37:28;24.75;67.75
70154;DHT22;57519;51.494;-2.626;2023-06-24T09:39:56;24.83;67.88
70154;DHT22;57519;51.494;-2.626;2023-06-24T09:42:22;24.88;67.86
70154;DHT22;57519;51.494;-2.626;2023-06-24T09:44:56;24.88;66.55
70154;DHT22;57519;51.494;-2.626;2023-06-24T09:47:21;25.03;65.76
70154;DHT22;57519;51.494;-2.626;2023-06-24T09:49:53;25.10;66.69
70154;DHT22;57519;51.494;-2.626;2023-06-24T09:52:20;24.86;67.33
70154;DHT22;57519;51.494;-2.626;2023-06-24T09:54:47;24.72;67.41
70154;DHT22;57519;51.494;-2.626;2023-06-24T09:57:18;24.51;67.15
70154;DHT22;57519;51.494;-2.626;2023-06-24T09:59:45;24.51;68.13
70154;DHT22;57519;51.494;-2.626;2023-06-24T10:02:14;24.51;69.47
70154;DHT22;57519;51.494;-2.626;2023-06-24T10:04:40;24.55;69.93
70154;DHT22;57519;51.494;-2.626;2023-06-24T10:07:06;24.20;68.93
70154;DHT22;57519;51.494;-2.626;2023-06-24T10:09:32;23.79;70.32
70154;DHT22;57519;51.494;-2.626;2023-06-24T10:11:57;23.80;69.94
70154;DHT22;57519;51.494;-2.626;2023-06-24T10:14:23;23.97;70.38
70154;DHT22;57519;51.494;-2.626;2023-06-24T10:16:48;24.28;69.39
70154;DHT22;57519;51.494;-2.626;2023-06-24T10:19:20;24.75;68.22
70154;DHT22;57519;51.494;-2.626;2023-06-24T10:21:58;24.69;67.58
70154;DHT22;57519;51.494;-2.626;2023-06-24T10:24:34;24.73;67.43
70154;DHT22;57519;51.494;-2.626;2023-06-24T10:27:08;24.65;68.31
70154;DHT22;57519;51.494;-2.626;2023-06-24T10:29:38;24.11;69.86
70154;DHT22;57519;51.494;-2.626;2023-06-24T10:32:07;24.13;70.42
70154;DHT22;57519;51.494;-2.626;2023-06-24T10:34:47;23.97;69.99
70154;DHT22;57519;51.494;-2.626;2023-06-24T10:37:32;24.17;69.24
70154;DHT22;57519;51.494;-2.626;2023-06-24T10:39:58;24.41;69.09
70154;DHT22;57519;51.494;-2.626;2023-06-24T10:44:58;24.06;69.51
70154;DHT22;57519;51.494;-2.626;2023-06-24T10:47:25;24.17;70.10
70154;DHT22;57519;51.494;-2.626;2023-06-24T10:49:51;24.00;70.24
70154;DHT22;57519;51.494;-2.626;2023-06-24T10:52:20;24.21;69.00
70154;DHT22;57519;51.494;-2.626;2023-06-24T10:54:49;24.23;69.37
70154;DHT22;57519;51.494;-2.626;2023-06-24T10:57:21;24.31;68.64
70154;DHT22;57519;51.494;-2.626;2023-06-24T10:59:50;24.48;68.31
70154;DHT22;57519;51.494;-2.626;2023-06-24T11:02:18;24.54;68.18
70154;DHT22;57519;51.494;-2.626;2023-06-24T11:04:44;24.72;67.80
70154;DHT22;57519;51.494;-2.626;2023-06-24T11:07:10;24.95;67.04
70154;DHT22;57519;51.494;-2.626;2023-06-24T11:09:35;25.22;66.84
70154;DHT22;57519;51.494;-2.626;2023-06-24T11:12:03;25.15;66.56
70154;DHT22;57519;51.494;-2.626;2023-06-24T11:14:29;24.80;67.53
70154;DHT22;57519;51.494;-2.626;2023-06-24T11:16:54;24.92;66.86
70154;DHT22;57519;51.494;-2.626;2023-06-24T11:19:20;25.13;67.47
70154;DHT22;57519;51.494;-2.626;2023-06-24T11:21:45;24.92;67.29
70154;DHT22;57519;51.494;-2.626;2023-06-24T11:24:10;24.64;67.43
70154;DHT22;57519;51.494;-2.626;2023-06-24T11:26:37;24.59;67.61
70154;DHT22;57519;51.494;-2.626;2023-06-24T11:29:10;24.88;67.44
70154;DHT22;57519;51.494;-2.626;2023-06-24T11:31:36;25.44;65.49
70154;DHT22;57519;51.494;-2.626;2023-06-24T11:34:03;25.28;65.26
70154;DHT22;57519;51.494;-2.626;2023-06-24T11:36:28;25.27;67.15
70154;DHT22;57519;51.494;-2.626;2023-06-24T11:38:54;25.61;66.06
70154;DHT22;57519;51.494;-2.626;2023-06-24T11:41:23;26.08;65.15
70154;DHT22;57519;51.494;-2.626;2023-06-24T11:43:51;26.28;63.85
70154;DHT22;57519;51.494;-2.626;2023-06-24T11:46:30;26.33;63.51
70154;DHT22;57519;51.494;-2.626;2023-06-24T11:49:08;25.95;62.63
70154;DHT22;57519;51.494;-2.626;2023-06-24T11:51:36;25.58;63.10
70154;DHT22;57519;51.494;-2.626;2023-06-24T11:54:05;25.65;64.41
70154;DHT22;57519;51.494;-2.626;2023-06-24T11:56:38;26.02;63.47
70154;DHT22;57519;51.494;-2.626;2023-06-24T11:59:23;26.28;62.87
70154;DHT22;57519;51.494;-2.626;2023-06-24T12:01:55;26.53;60.78
70154;DHT22;57519;51.494;-2.626;2023-06-24T12:04:21;26.36;62.71
70154;DHT22;57519;51.494;-2.626;2023-06-24T12:06:46;26.47;63.65
70154;DHT22;57519;51.494;-2.626;2023-06-24T12:09:12;26.70;62.18
70154;DHT22;57519;51.494;-2.626;2023-06-24T12:11:38;26.80;62.18
70154;DHT22;57519;51.494;-2.626;2023-06-24T12:14:05;26.03;62.68
70154;DHT22;57519;51.494;-2.626;2023-06-24T12:16:30;26.01;63.70
70154;DHT22;57519;51.494;-2.626;2023-06-24T12:18:56;26.33;62.31
70154;DHT22;57519;51.494;-2.626;2023-06-24T12:21:21;26.60;62.13
70154;DHT22;57519;51.494;-2.626;2023-06-24T12:23:47;26.28;63.99
70154;DHT22;57519;51.494;-2.626;2023-06-24T12:26:12;26.47;61.30
70154;DHT22;57519;51.494;-2.626;2023-06-24T12:28:38;27.01;62.08
70154;DHT22;57519;51.494;-2.626;2023-06-24T12:31:04;27.25;59.18
70154;DHT22;57519;51.494;-2.626;2023-06-24T12:33:30;26.77;59.60
70154;DHT22;57519;51.494;-2.626;2023-06-24T12:35:55;26.46;61.53
70154;DHT22;57519;51.494;-2.626;2023-06-24T12:38:21;26.37;62.16
70154;DHT22;57519;51.494;-2.626;2023-06-24T12:40:46;26.59;61.33
70154;DHT22;57519;51.494;-2.626;2023-06-24T12:43:13;27.05;60.54
70154;DHT22;57519;51.494;-2.626;2023-06-24T12:45:39;27.50;58.78
70154;DHT22;57519;51.494;-2.626;2023-06-24T12:48:05;28.02;58.34
70154;DHT22;57519;51.494;-2.626;2023-06-24T12:50:30;28.01;57.96
70154;DHT22;57519;51.494;-2.626;2023-06-24T12:52:57;28.25;57.80
70154;DHT22;57519;51.494;-2.626;2023-06-24T12:55:23;27.97;56.79
70154;DHT22;57519;51.494;-2.626;2023-06-24T12:57:48;28.01;57.00
70154;DHT22;57519;51.494;-2.626;2023-06-24T13:00:14;27.91;56.96
70154;DHT22;57519;51.494;-2.626;2023-06-24T13:02:40;28.14;56.59
70154;DHT22;57519;51.494;-2.626;2023-06-24T13:05:05;28.21;57.26
70154;DHT22;57519;51.494;-2.626;2023-06-24T13:07:31;28.56;56.57
70154;DHT22;57519;51.494;-2.626;2023-06-24T13:09:56;28.01;57.67
70154;DHT22;57519;51.494;-2.626;2023-06-24T13:12:22;27.63;58.65
70154;DHT22;57519;51.494;-2.626;2023-06-24T13:14:48;27.41;59.61
70154;DHT22;57519;51.494;-2.626;2023-06-24T13:17:13;27.32;59.03
70154;DHT22;57519;51.494;-2.626;2023-06-24T13:19:38;27.38;59.42
70154;DHT22;57519;51.494;-2.626;2023-06-24T13:22:04;27.06;60.15
70154;DHT22;57519;51.494;-2.626;2023-06-24T13:24:30;26.95;60.64
70154;DHT22;57519;51.494;-2.626;2023-06-24T13:26:55;26.98;60.71
70154;DHT22;57519;51.494;-2.626;2023-06-24T13:29:21;26.99;61.27
70154;DHT22;57519;51.494;-2.626;2023-06-24T13:31:46;27.52;59.73
70154;DHT22;57519;51.494;-2.626;2023-06-24T13:34:12;27.73;58.81
70154;DHT22;57519;51.494;-2.626;2023-06-24T13:36:38;27.49;59.14
70154;DHT22;57519;51.494;-2.626;2023-06-24T13:39:05;27.47;60.17
70154;DHT22;57519;51.494;-2.626;2023-06-24T13:41:31;27.73;59.63
70154;DHT22;57519;51.494;-2.626;2023-06-24T13:44:07;27.49;59.89
70154;DHT22;57519;51.494;-2.626;2023-06-24T13:46:32;27.16;60.82
70154;DHT22;57519;51.494;-2.626;2023-06-24T13:48:58;27.42;60.18
70154;DHT22;57519;51.494;-2.626;2023-06-24T13:51:24;27.64;59.60
70154;DHT22;57519;51.494;-2.626;2023-06-24T13:53:51;28.05;58.96
70154;DHT22;57519;51.494;-2.626;2023-06-24T13:56:18;28.28;58.26
70154;DHT22;57519;51.494;-2.626;2023-06-24T13:58:45;28.55;57.41
70154;DHT22;57519;51.494;-2.626;2023-06-24T14:01:11;28.45;55.90
70154;DHT22;57519;51.494;-2.626;2023-06-24T14:03:36;28.14;58.59
70154;DHT22;57519;51.494;-2.626;2023-06-24T14:06:02;28.31;58.03
70154;DHT22;57519;51.494;-2.626;2023-06-24T14:08:28;28.72;57.35
70154;DHT22;57519;51.494;-2.626;2023-06-24T14:10:55;28.69;56.00
70154;DHT22;57519;51.494;-2.626;2023-06-24T14:13:20;28.65;56.59
70154;DHT22;57519;51.494;-2.626;2023-06-24T14:15:46;29.02;55.31
70154;DHT22;57519;51.494;-2.626;2023-06-24T14:18:11;28.97;56.21
70154;DHT22;57519;51.494;-2.626;2023-06-24T14:20:37;28.87;54.28
70154;DHT22;57519;51.494;-2.626;2023-06-24T14:23:04;29.07;53.64
70154;DHT22;57519;51.494;-2.626;2023-06-24T14:25:30;29.38;53.60
70154;DHT22;57519;51.494;-2.626;2023-06-24T14:27:55;29.44;52.29
70154;DHT22;57519;51.494;-2.626;2023-06-24T14:30:21;29.08;52.44
70154;DHT22;57519;51.494;-2.626;2023-06-24T14:32:46;29.23;54.01
70154;DHT22;57519;51.494;-2.626;2023-06-24T14:35:12;28.94;51.53
70154;DHT22;57519;51.494;-2.626;2023-06-24T14:37:37;28.66;52.86
70154;DHT22;57519;51.494;-2.626;2023-06-24T14:40:03;28.56;54.23
70154;DHT22;57519;51.494;-2.626;2023-06-24T14:42:29;28.42;53.68
70154;DHT22;57519;51.494;-2.626;2023-06-24T14:44:54;28.38;53.17
70154;DHT22;57519;51.494;-2.626;2023-06-24T14:47:19;28.34;53.91
70154;DHT22;57519;51.494;-2.626;2023-06-24T14:49:45;28.17;54.71
70154;DHT22;57519;51.494;-2.626;2023-06-24T14:52:10;28.17;54.33
70154;DHT22;57519;51.494;-2.626;2023-06-24T14:54:36;27.91;55.02
70154;DHT22;57519;51.494;-2.626;2023-06-24T14:57:01;27.83;55.03
70154;DHT22;57519;51.494;-2.626;2023-06-24T14:59:27;27.69;54.07
70154;DHT22;57519;51.494;-2.626;2023-06-24T15:01:52;28.14;53.75
70154;DHT22;57519;51.494;-2.626;2023-06-24T15:04:18;28.68;53.90
70154;DHT22;57519;51.494;-2.626;2023-06-24T15:06:43;28.76;52.12
70154;DHT22;57519;51.494;-2.626;2023-06-24T15:09:09;28.60;52.02
70154;DHT22;57519;51.494;-2.626;2023-06-24T15:11:34;28.77;53.13
70154;DHT22;57519;51.494;-2.626;2023-06-24T15:13:59;28.87;51.73
70154;DHT22;57519;51.494;-2.626;2023-06-24T15:16:25;29.02;51.44
70154;DHT22;57519;51.494;-2.626;2023-06-24T15:18:50;29.25;50.45
70154;DHT22;57519;51.494;-2.626;2023-06-24T15:21:16;29.17;51.35
70154;DHT22;57519;51.494;-2.626;2023-06-24T15:23:41;29.55;50.29
70154;DHT22;57519;51.494;-2.626;2023-06-24T15:26:07;29.83;51.26
70154;DHT22;57519;51.494;-2.626;2023-06-24T15:28:33;30.24;49.36